Time;durP1;ratioP1;P1;durP2;ratioP2;P2;SDS_P1;SDS_P2;PMS_P1;PMS_P2;Temp;Humidity;BMP_temperature;BMP_pressure;BME280_temperature;BME280_humidity;BME280_pressure;Samples;Min_cycle;Max_cycle;Signal;HPM_P1;HPM_P2
2023/12/02 00:01:45;;;;;;;;;38.25;34.50;;;;;-147.47;100.00;64613.53;4890328;29;28674;-75
2023/12/02 00:04:11;;;;;;;;;43.00;33.25;;;;;-147.47;100.00;64613.53;4899614;29;28025;-74
2023/12/02 00:06:36;;;;;;;;;51.50;36.00;;;;;-147.47;100.00;64613.53;4899815;29;28509;-75
2023/12/02 00:09:02;;;;;;;;;44.25;35.25;;;;;-147.47;100.00;64613.53;4879983;29;29293;-76
2023/12/02 00:11:28;;;;;;;;;48.75;31.75;;;;;-147.47;100.00;64613.53;4895047;29;28624;-74
2023/12/02 00:13:53;;;;;;;;;48.25;38.25;;;;;-147.47;100.00;64613.53;4898069;29;28465;-74
2023/12/02 00:16:18;;;;;;;;;35.00;25.50;;;;;-147.47;100.00;64613.53;4895635;29;28507;-75
2023/12/02 00:18:44;;;;;;;;;44.75;29.75;;;;;-147.47;100.00;64613.53;4898505;29;28508;-76
2023/12/02 00:21:09;;;;;;;;;46.75;35.75;;;;;-147.47;100.00;64613.53;4897280;29;28468;-80
2023/12/02 00:23:35;;;;;;;;;44.00;36.00;;;;;-147.47;100.00;64613.53;4898628;29;28443;-74
2023/12/02 00:26:00;;;;;;;;;49.75;39.00;;;;;-147.47;100.00;64613.53;4895217;29;28622;-75
2023/12/02 00:28:25;;;;;;;;;45.00;36.25;;;;;-147.47;100.00;64613.53;4898295;29;28438;-74
2023/12/02 00:30:51;;;;;;;;;35.75;32.00;;;;;-147.47;100.00;64613.53;4898959;29;28573;-74
2023/12/02 00:33:16;;;;;;;;;53.25;38.00;;;;;-147.47;100.00;64613.53;4882854;29;28429;-76
2023/12/02 00:35:41;;;;;;;;;44.25;35.25;;;;;-147.47;100.00;64613.53;4898033;29;28459;-76
2023/12/02 00:38:07;;;;;;;;;50.25;37.25;;;;;-147.47;100.00;64613.53;4898722;29;28692;-75
2023/12/02 00:40:32;;;;;;;;;43.25;34.00;;;;;-147.47;100.00;64613.53;4896686;29;28286;-73
2023/12/02 00:42:58;;;;;;;;;36.50;31.75;;;;;-147.47;100.00;64613.53;4893016;29;28972;-76
2023/12/02 00:45:23;;;;;;;;;43.00;35.25;;;;;-147.47;100.00;64613.53;4898630;29;29111;-74
2023/12/02 00:47:48;;;;;;;;;40.75;30.50;;;;;-147.47;100.00;64613.53;4897848;29;28374;-76
2023/12/02 00:50:14;;;;;;;;;51.75;36.00;;;;;-147.47;100.00;64613.53;4897560;29;28533;-76
2023/12/02 00:52:39;;;;;;;;;40.75;32.75;;;;;-147.47;100.00;64613.53;4897083;29;28768;-75
2023/12/02 00:55:05;;;;;;;;;36.50;31.50;;;;;-147.47;100.00;64613.53;4892224;29;28427;-76
2023/12/02 00:57:31;;;;;;;;;33.00;27.00;;;;;-147.47;100.00;64613.53;4879108;29;31241;-75
2023/12/02 00:59:56;;;;;;;;;33.75;31.25;;;;;-147.47;100.00;64613.53;4897403;29;28558;-76
2023/12/02 01:02:21;;;;;;;;;32.25;26.75;;;;;-147.47;100.00;64613.53;4896504;29;28378;-77
2023/12/02 01:04:47;;;;;;;;;37.75;31.00;;;;;-147.47;100.00;64613.53;4893729;29;27928;-76
2023/12/02 01:07:12;;;;;;;;;37.75;29.75;;;;;-147.47;100.00;64613.53;4897888;29;28565;-74
2023/12/02 01:09:37;;;;;;;;;39.00;25.50;;;;;-147.47;100.00;64613.53;4891766;29;28529;-75
2023/12/02 01:12:03;;;;;;;;;23.50;18.00;;;;;-147.47;100.00;64613.53;4890364;29;28381;-72
2023/12/02 01:14:28;;;;;;;;;32.00;24.00;;;;;-147.47;100.00;64613.53;4874306;29;30289;-74
2023/12/02 01:16:54;;;;;;;;;33.50;28.75;;;;;-147.47;100.00;64613.53;4892032;29;29159;-75
2023/12/02 01:19:20;;;;;;;;;37.50;26.50;;;;;-147.47;100.00;64613.53;4888882;29;28911;-75
2023/12/02 01:21:46;;;;;;;;;32.75;25.00;;;;;-147.47;100.00;64613.53;4883497;29;29000;-73
2023/12/02 01:24:11;;;;;;;;;38.50;28.75;;;;;-147.47;100.00;64613.53;4885705;29;28708;-72
2023/12/02 01:26:36;;;;;;;;;35.25;29.50;;;;;-147.47;100.00;64613.53;4902532;23;28417;-69
2023/12/02 01:29:02;;;;;;;;;33.75;24.25;;;;;-147.47;100.00;64613.53;4890125;29;28531;-70
2023/12/02 01:31:28;;;;;;;;;29.25;25.00;;;;;-147.47;100.00;64613.53;4889493;29;29038;-70
2023/12/02 01:33:53;;;;;;;;;37.50;29.00;;;;;-147.47;100.00;64613.53;4872056;29;30659;-71
2023/12/02 01:36:18;;;;;;;;;40.75;34.25;;;;;-147.47;100.00;64613.53;4892003;29;28482;-69
2023/12/02 01:38:44;;;;;;;;;40.25;31.00;;;;;-147.47;100.00;64613.53;4893408;29;28514;-70
2023/12/02 01:41:09;;;;;;;;;31.50;26.00;;;;;-147.47;100.00;64613.53;4891077;29;29106;-71
2023/12/02 01:43:37;;;;;;;;;41.00;36.25;;;;;-147.47;100.00;64613.53;4871386;29;29157;-72
2023/12/02 01:46:03;;;;;;;;;39.00;28.25;;;;;-147.47;100.00;64613.53;4888266;29;29639;-71
2023/12/02 01:48:35;;;;;;;;;41.50;31.25;;;;;-147.47;100.00;64613.53;4871507;29;29175;-72
2023/12/02 01:51:00;;;;;;;;;37.50;32.00;;;;;-147.47;100.00;64613.53;4873063;29;28728;-71
2023/12/02 01:53:26;;;;;;;;;33.50;29.25;;;;;-147.47;100.00;64613.53;4889420;29;28851;-70
2023/12/02 01:55:52;;;;;;;;;40.00;29.25;;;;;-147.47;100.00;64613.53;4887933;29;28611;-72
2023/12/02 01:58:19;;;;;;;;;34.75;30.50;;;;;-147.47;100.00;64613.53;4872876;29;28955;-70
2023/12/02 02:00:44;;;;;;;;;45.25;30.75;;;;;-147.47;100.00;64613.53;4893447;29;28785;-71
2023/12/02 02:03:09;;;;;;;;;36.25;24.25;;;;;-147.47;100.00;64613.53;4874843;29;29759;-68
2023/12/02 02:05:35;;;;;;;;;39.00;34.00;;;;;-147.47;100.00;64613.53;4898061;29;28790;-71
2023/12/02 02:08:01;;;;;;;;;39.00;32.00;;;;;-147.47;100.00;64613.53;4872422;29;29386;-71
2023/12/02 02:10:26;;;;;;;;;41.00;33.25;;;;;-147.47;100.00;64613.53;4885944;29;28717;-71
2023/12/02 02:12:52;;;;;;;;;35.25;30.00;;;;;-147.47;100.00;64613.53;4888679;29;28652;-69
2023/12/02 02:15:17;;;;;;;;;44.25;35.75;;;;;-147.47;100.00;64613.53;4889172;29;29041;-70
2023/12/02 02:17:43;;;;;;;;;42.50;34.50;;;;;-147.47;100.00;64613.53;4866559;29;28961;-70
2023/12/02 02:20:09;;;;;;;;;44.25;34.75;;;;;-147.47;100.00;64613.53;4879435;29;28824;-68
2023/12/02 02:22:35;;;;;;;;;44.25;34.50;;;;;-147.47;100.00;64613.53;4892715;29;28553;-69
2023/12/02 02:25:00;;;;;;;;;48.25;38.25;;;;;-147.47;100.00;64613.53;4889181;29;28907;-72
2023/12/02 02:27:26;;;;;;;;;44.75;39.00;;;;;-147.47;100.00;64613.53;4886093;29;28933;-69
2023/12/02 02:29:51;;;;;;;;;53.50;38.00;;;;;-147.47;100.00;64613.53;4878245;29;28526;-70
2023/12/02 02:32:17;;;;;;;;;46.50;36.50;;;;;-147.47;100.00;64613.53;4888054;29;30908;-70
2023/12/02 02:34:42;;;;;;;;;40.25;36.00;;;;;-147.47;100.00;64613.53;4879874;29;28643;-68
2023/12/02 02:37:08;;;;;;;;;40.25;32.00;;;;;-147.47;100.00;64613.53;4892074;29;28967;-69
2023/12/02 02:39:33;;;;;;;;;37.50;31.50;;;;;-147.47;100.00;64613.53;4874379;29;28498;-70
2023/12/02 02:42:05;;;;;;;;;45.25;33.75;;;;;-147.47;100.00;64613.53;4892879;29;28940;-71
2023/12/02 02:44:34;;;;;;;;;32.00;25.00;;;;;-147.47;100.00;64613.53;4889290;29;28917;-71
2023/12/02 02:47:00;;;;;;;;;40.00;32.50;;;;;-147.47;100.00;64613.53;4888556;29;28724;-71
2023/12/02 02:49:25;;;;;;;;;44.25;33.50;;;;;-147.47;100.00;64613.53;4895315;29;28571;-71
2023/12/02 02:51:50;;;;;;;;;48.75;35.75;;;;;-147.47;100.00;64613.53;4891720;29;28976;-70
2023/12/02 02:54:16;;;;;;;;;43.75;34.00;;;;;-147.47;100.00;64613.53;4892816;29;28887;-73
2023/12/02 02:56:43;;;;;;;;;43.25;33.75;;;;;-147.47;100.00;64613.53;4895470;29;28872;-72
2023/12/02 02:59:08;;;;;;;;;46.50;37.75;;;;;-147.47;100.00;64613.53;4861209;29;28581;-69
2023/12/02 03:01:34;;;;;;;;;41.00;33.00;;;;;-147.47;100.00;64613.53;4903835;29;33123;-73
2023/12/02 03:03:59;;;;;;;;;49.25;38.25;;;;;-147.47;100.00;64613.53;4893548;29;28475;-73
2023/12/02 03:06:24;;;;;;;;;37.50;34.75;;;;;-147.47;100.00;64613.53;4892705;29;28815;-71
2023/12/02 03:08:50;;;;;;;;;36.00;32.50;;;;;-147.47;100.00;64613.53;4891871;29;28402;-71
2023/12/02 03:11:16;;;;;;;;;37.00;33.00;;;;;-147.47;100.00;64613.53;4895105;29;28635;-68
2023/12/02 03:13:41;;;;;;;;;43.50;37.50;;;;;-147.47;100.00;64613.53;4877911;29;30158;-69
2023/12/02 03:16:07;;;;;;;;;44.25;35.75;;;;;-147.47;100.00;64613.53;4885837;29;29511;-74
2023/12/02 03:18:33;;;;;;;;;51.25;36.25;;;;;-147.47;100.00;64613.53;4894130;29;28554;-69
2023/12/02 03:20:58;;;;;;;;;47.50;35.00;;;;;-147.47;100.00;64613.53;4890591;29;28952;-72
2023/12/02 03:23:25;;;;;;;;;43.75;34.50;;;;;-147.47;100.00;64613.53;4897808;29;29023;-71
2023/12/02 03:25:50;;;;;;;;;47.50;36.00;;;;;-147.47;100.00;64613.53;4902032;29;28470;-70
2023/12/02 03:28:16;;;;;;;;;38.50;36.25;;;;;-147.47;100.00;64613.53;4866091;29;28799;-71
2023/12/02 03:30:41;;;;;;;;;50.50;39.25;;;;;-147.47;100.00;64613.53;4892217;29;28629;-71
2023/12/02 03:33:06;;;;;;;;;43.50;36.00;;;;;-147.47;100.00;64613.53;4870865;29;29999;-72
2023/12/02 03:35:32;;;;;;;;;50.25;37.00;;;;;-147.47;100.00;64613.53;4875012;29;29017;-71
2023/12/02 03:37:57;;;;;;;;;43.50;32.75;;;;;-147.47;100.00;64613.53;4885880;29;28540;-72
2023/12/02 03:40:23;;;;;;;;;49.00;38.50;;;;;-147.47;100.00;64613.53;4892687;29;28506;-70
2023/12/02 03:42:48;;;;;;;;;40.75;37.00;;;;;-147.47;100.00;64613.53;4888390;29;29856;-74
2023/12/02 03:45:13;;;;;;;;;50.75;35.25;;;;;-147.47;100.00;64613.53;4885616;29;28789;-73
2023/12/02 03:47:39;;;;;;;;;56.75;36.00;;;;;-147.47;100.00;64613.53;4887104;29;28894;-71
2023/12/02 03:50:05;;;;;;;;;45.25;32.50;;;;;-147.47;100.00;64613.53;4888744;29;28680;-70
2023/12/02 03:52:30;;;;;;;;;52.00;38.25;;;;;-147.47;100.00;64613.53;4900535;29;28712;-71
2023/12/02 03:54:56;;;;;;;;;38.50;37.25;;;;;-147.47;100.00;64613.53;4877879;29;28914;-70
2023/12/02 03:57:21;;;;;;;;;40.00;32.00;;;;;-147.47;100.00;64613.53;4875122;29;28978;-71
2023/12/02 03:59:47;;;;;;;;;47.75;32.50;;;;;-147.47;100.00;64613.53;4890837;29;29154;-72
2023/12/02 04:02:12;;;;;;;;;43.50;36.50;;;;;-147.47;100.00;64613.53;4871343;29;30846;-72
2023/12/02 04:04:38;;;;;;;;;53.00;39.75;;;;;-147.47;100.00;64613.53;4889937;29;28498;-71
2023/12/02 04:07:04;;;;;;;;;49.25;38.50;;;;;-147.47;100.00;64613.53;4888388;29;28912;-70
2023/12/02 04:09:30;;;;;;;;;44.75;33.50;;;;;-147.47;100.00;64613.53;4882062;29;29266;-70
2023/12/02 04:11:55;;;;;;;;;45.75;37.75;;;;;-147.47;100.00;64613.53;4886947;29;28527;-69
2023/12/02 04:14:21;;;;;;;;;51.00;37.00;;;;;-147.47;100.00;64613.53;4871648;29;29059;-70
2023/12/02 04:16:46;;;;;;;;;57.50;42.00;;;;;-147.47;100.00;64613.53;4874095;29;28491;-70
2023/12/02 04:19:12;;;;;;;;;53.75;39.00;;;;;-147.47;100.00;64613.53;4892539;29;28956;-69
2023/12/02 04:21:42;;;;;;;;;48.00;37.25;;;;;-147.47;100.00;64613.53;4895807;29;28995;-69
2023/12/02 04:24:07;;;;;;;;;39.25;31.00;;;;;-147.47;100.00;64613.53;4889295;29;28571;-72
2023/12/02 04:26:33;;;;;;;;;43.75;34.75;;;;;-147.47;100.00;64613.53;4870127;29;28791;-71
2023/12/02 04:28:58;;;;;;;;;50.25;36.25;;;;;-147.47;100.00;64613.53;4885102;29;28781;-70
2023/12/02 04:31:23;;;;;;;;;42.50;34.75;;;;;-147.47;100.00;64613.53;4897026;29;31412;-70
2023/12/02 04:33:49;;;;;;;;;48.75;32.00;;;;;-147.47;100.00;64613.53;4889687;29;28480;-72
2023/12/02 04:36:14;;;;;;;;;51.50;35.50;;;;;-147.47;100.00;64613.53;4892135;29;28644;-71
2023/12/02 04:38:40;;;;;;;;;42.75;32.00;;;;;-147.47;100.00;64613.53;4889575;29;28598;-72
2023/12/02 04:41:06;;;;;;;;;49.25;36.50;;;;;-147.47;100.00;64613.53;4875035;29;28551;-69
2023/12/02 04:43:31;;;;;;;;;43.50;34.50;;;;;-147.47;100.00;64613.53;4891840;29;28449;-71
2023/12/02 04:45:56;;;;;;;;;50.50;37.00;;;;;-147.47;100.00;64613.53;4877451;29;28534;-73
2023/12/02 04:48:22;;;;;;;;;44.25;34.25;;;;;-147.47;100.00;64613.53;4895930;29;28605;-70
2023/12/02 04:50:47;;;;;;;;;58.25;40.25;;;;;-147.47;100.00;64613.53;4890398;29;29076;-71
2023/12/02 04:53:13;;;;;;;;;46.50;37.25;;;;;-147.47;100.00;64613.53;4891881;29;28804;-74
2023/12/02 04:55:39;;;;;;;;;46.25;37.50;;;;;-147.47;100.00;64613.53;4874437;29;28439;-73
2023/12/02 04:58:04;;;;;;;;;49.00;37.25;;;;;-147.47;100.00;64613.53;4891541;29;28549;-71
2023/12/02 05:00:30;;;;;;;;;42.75;33.75;;;;;-147.47;100.00;64613.53;4888162;29;28531;-70
2023/12/02 05:02:55;;;;;;;;;44.50;33.75;;;;;-147.47;100.00;64613.53;4884711;29;28830;-72
2023/12/02 05:05:21;;;;;;;;;54.50;39.25;;;;;-147.47;100.00;64613.53;4891661;29;28793;-70
2023/12/02 05:07:46;;;;;;;;;52.75;41.75;;;;;-147.47;100.00;64613.53;4892711;29;29658;-71
2023/12/02 05:10:12;;;;;;;;;45.75;31.75;;;;;-147.47;100.00;64613.53;4874292;29;29115;-70
2023/12/02 05:12:37;;;;;;;;;48.25;38.00;;;;;-147.47;100.00;64613.53;4892435;29;28499;-72
2023/12/02 05:15:04;;;;;;;;;47.50;35.00;;;;;-147.47;100.00;64613.53;4891642;29;28944;-71
2023/12/02 05:17:29;;;;;;;;;55.50;38.25;;;;;-147.47;100.00;64613.53;4888493;29;28722;-69
2023/12/02 05:19:56;;;;;;;;;52.50;36.50;;;;;-147.47;100.00;64613.53;4889881;29;29041;-70
2023/12/02 05:22:21;;;;;;;;;50.00;34.00;;;;;-147.47;100.00;64613.53;4890558;29;28542;-73
2023/12/02 05:24:46;;;;;;;;;53.00;40.75;;;;;-147.47;100.00;64613.53;4872508;29;28740;-72
2023/12/02 05:27:13;;;;;;;;;38.50;33.75;;;;;-147.47;100.00;64613.53;4890887;29;28937;-75
2023/12/02 05:29:39;;;;;;;;;47.50;36.50;;;;;-147.47;100.00;64613.53;4888626;29;28572;-71
2023/12/02 05:32:05;;;;;;;;;52.25;37.00;;;;;-147.47;100.00;64613.53;4888400;29;28531;-71
2023/12/02 05:34:33;;;;;;;;;48.75;33.25;;;;;-147.47;100.00;64613.53;4887247;29;28586;-70
2023/12/02 05:37:00;;;;;;;;;44.50;37.00;;;;;-147.47;100.00;64613.53;4888312;29;28568;-77
2023/12/02 05:39:26;;;;;;;;;55.75;40.25;;;;;-147.47;100.00;64613.53;4887488;29;28808;-72
2023/12/02 05:41:51;;;;;;;;;51.75;39.00;;;;;-147.47;100.00;64613.53;4887609;29;28775;-70
2023/12/02 05:44:17;;;;;;;;;45.50;39.00;;;;;-147.47;100.00;64613.53;4890711;29;29369;-72
2023/12/02 05:46:42;;;;;;;;;52.50;37.25;;;;;-147.47;100.00;64613.53;4889104;29;28454;-71
2023/12/02 05:49:07;;;;;;;;;39.50;35.75;;;;;-147.47;100.00;64613.53;4893285;29;28589;-71
2023/12/02 05:51:37;;;;;;;;;51.50;37.75;;;;;-147.47;100.00;64613.53;4889590;29;30666;-72
2023/12/02 05:54:02;;;;;;;;;49.50;38.50;;;;;-147.47;100.00;64613.53;4886080;29;29624;-69
2023/12/02 05:56:28;;;;;;;;;52.25;41.00;;;;;-147.47;100.00;64613.53;4893149;29;28533;-70
2023/12/02 05:58:54;;;;;;;;;46.75;34.75;;;;;-147.47;100.00;64613.53;4885575;29;28415;-69
2023/12/02 06:01:22;;;;;;;;;53.00;38.00;;;;;-147.47;100.00;64613.53;4870668;29;28564;-71
2023/12/02 06:03:49;;;;;;;;;52.50;39.00;;;;;-147.47;100.00;64613.53;4886740;29;28499;-70
2023/12/02 06:06:14;;;;;;;;;55.75;41.00;;;;;-147.47;100.00;64613.53;4892382;29;28525;-78
2023/12/02 06:08:40;;;;;;;;;51.25;41.00;;;;;-147.47;100.00;64613.53;4902972;29;29231;-77
2023/12/02 06:11:06;;;;;;;;;51.75;39.25;;;;;-147.47;100.00;64613.53;4900933;29;28507;-77
2023/12/02 06:13:31;;;;;;;;;56.50;42.50;;;;;-147.47;100.00;64613.53;4880514;29;28712;-77
2023/12/02 06:15:57;;;;;;;;;58.50;41.75;;;;;-147.47;100.00;64613.53;4904725;29;28842;-76
2023/12/02 06:18:22;;;;;;;;;60.50;41.50;;;;;-147.47;100.00;64613.53;4905381;29;29106;-78
2023/12/02 06:20:47;;;;;;;;;52.25;39.75;;;;;-147.47;100.00;64613.53;4906169;29;27944;-78
2023/12/02 06:23:13;;;;;;;;;56.25;42.75;;;;;-147.47;100.00;64613.53;4904930;29;28516;-78
2023/12/02 06:25:38;;;;;;;;;51.75;39.50;;;;;-147.47;100.00;64613.53;4905527;29;27812;-78
2023/12/02 06:28:04;;;;;;;;;53.75;40.75;;;;;-147.47;100.00;64613.53;4879844;29;29691;-76
2023/12/02 06:30:30;;;;;;;;;52.75;40.75;;;;;-147.47;100.00;64613.53;4888410;29;28574;-78
2023/12/02 06:32:56;;;;;;;;;48.25;38.00;;;;;-147.47;100.00;64613.53;4910958;29;28470;-82
2023/12/02 06:35:22;;;;;;;;;52.00;41.25;;;;;-147.47;100.00;64613.53;4933247;28;28010;-80
2023/12/02 06:37:47;;;;;;;;;56.00;40.75;;;;;-147.47;100.00;64613.53;4921461;29;28023;-82
2023/12/02 06:40:13;;;;;;;;;59.00;41.25;;;;;-147.47;100.00;64613.53;4893847;29;28819;-83
2023/12/02 06:42:39;;;;;;;;;57.50;41.25;;;;;-147.47;100.00;64613.53;4919211;29;27929;-83
2023/12/02 06:45:05;;;;;;;;;39.75;37.25;;;;;-147.47;100.00;64613.53;4923830;29;28867;-82
2023/12/02 06:47:31;;;;;;;;;55.75;41.25;;;;;-147.47;100.00;64613.53;4923992;29;28214;-84
2023/12/02 06:49:57;;;;;;;;;63.50;41.50;;;;;-147.47;100.00;64613.53;4908807;29;27931;-82
2023/12/02 06:52:22;;;;;;;;;60.50;44.25;;;;;-147.47;100.00;64613.53;4897275;29;28852;-84
2023/12/02 06:54:48;;;;;;;;;59.00;41.00;;;;;-147.47;100.00;64613.53;4895302;29;28914;-82
2023/12/02 06:57:13;;;;;;;;;60.00;45.50;;;;;-147.47;100.00;64613.53;4897005;29;29125;-82
2023/12/02 06:59:39;;;;;;;;;56.75;42.75;;;;;-147.47;100.00;64613.53;4878374;29;28704;-81
2023/12/02 07:02:04;;;;;;;;;49.00;36.25;;;;;-147.47;100.00;64613.53;4896584;29;28962;-82
2023/12/02 07:04:29;;;;;;;;;56.00;39.50;;;;;-147.47;100.00;64613.53;4898345;29;28490;-81
2023/12/02 07:06:55;;;;;;;;;55.00;41.00;;;;;-147.47;100.00;64613.53;4896590;29;28505;-82
2023/12/02 07:09:20;;;;;;;;;48.75;39.00;;;;;-147.47;100.00;64613.53;4887828;29;29107;-81
2023/12/02 07:11:46;;;;;;;;;56.00;42.50;;;;;-147.47;100.00;64613.53;4879565;29;29204;-82
2023/12/02 07:14:11;;;;;;;;;45.75;39.75;;;;;-147.47;100.00;64613.53;4893188;29;28556;-82
2023/12/02 07:16:37;;;;;;;;;52.50;40.75;;;;;-147.47;100.00;64613.53;4883764;29;30076;-83
2023/12/02 07:19:02;;;;;;;;;59.75;42.50;;;;;-147.47;100.00;64613.53;4900831;29;28859;-83
2023/12/02 07:21:28;;;;;;;;;56.25;40.25;;;;;-147.47;100.00;64613.53;4901407;29;29022;-82
2023/12/02 07:23:53;;;;;;;;;60.25;44.25;;;;;-147.47;100.00;64613.53;4905973;29;28665;-81
2023/12/02 07:26:19;;;;;;;;;58.00;40.75;;;;;-147.47;100.00;64613.53;4907769;29;28934;-85
2023/12/02 07:28:44;;;;;;;;;57.25;41.00;;;;;-147.47;100.00;64613.53;4898264;29;28608;-83
2023/12/02 07:31:14;;;;;;;;;62.50;45.00;;;;;-147.47;100.00;64613.53;4889167;29;28719;-85
2023/12/02 07:33:41;;;;;;;;;55.75;41.25;;;;;-147.47;100.00;64613.53;4902675;29;28458;-87
2023/12/02 07:36:07;;;;;;;;;56.00;41.25;;;;;-147.47;100.00;64613.53;4885054;29;29794;-81
2023/12/02 07:38:33;;;;;;;;;57.75;40.50;;;;;-147.47;100.00;64613.53;4897011;29;28628;-82
2023/12/02 07:40:58;;;;;;;;;64.75;45.75;;;;;-147.47;100.00;64613.53;4898389;29;28508;-82
2023/12/02 07:43:23;;;;;;;;;50.50;40.75;;;;;-147.47;100.00;64613.53;4894193;29;28523;-83
2023/12/02 07:45:50;;;;;;;;;49.75;39.50;;;;;-147.47;100.00;64613.53;4893421;29;28873;-83
2023/12/02 07:48:16;;;;;;;;;59.00;42.75;;;;;-147.47;100.00;64613.53;4881656;29;28269;-80
2023/12/02 07:50:42;;;;;;;;;61.00;43.50;;;;;-147.47;100.00;64613.53;4902951;29;28627;-81
2023/12/02 07:53:14;;;;;;;;;61.25;43.25;;;;;-147.47;100.00;64613.53;4909365;29;29441;-77
2023/12/02 07:55:40;;;;;;;;;56.00;41.50;;;;;-147.47;100.00;64613.53;4886711;29;30780;-76
2023/12/02 07:58:05;;;;;;;;;60.25;45.75;;;;;-147.47;100.00;64613.53;4874228;29;28608;-78
2023/12/02 08:00:31;;;;;;;;;52.25;41.00;;;;;-147.47;100.00;64613.53;4884214;29;28562;-78
2023/12/02 08:03:28;;;;;;;;;57.50;43.50;;;;;-147.47;100.00;64613.53;4895425;29;28545;-79
2023/12/02 08:05:53;;;;;;;;;56.25;43.50;;;;;-147.47;100.00;64613.53;4876406;29;29934;-76
2023/12/02 08:08:18;;;;;;;;;63.75;45.00;;;;;-147.47;100.00;64613.53;4884528;29;28815;-76
2023/12/02 08:10:47;;;;;;;;;59.75;43.25;;;;;-147.47;100.00;64613.53;4878871;29;28851;-74
2023/12/02 08:13:12;;;;;;;;;65.25;47.75;;;;;-147.47;100.00;64613.53;4883557;29;28572;-74
2023/12/02 08:15:39;;;;;;;;;54.75;41.75;;;;;-147.47;100.00;64613.53;4884527;29;29104;-74
2023/12/02 08:18:05;;;;;;;;;53.00;40.75;;;;;-147.47;100.00;64613.53;4885370;29;29801;-77
2023/12/02 08:20:30;;;;;;;;;58.25;43.25;;;;;-147.47;100.00;64613.53;4866661;29;29027;-83
2023/12/02 08:22:55;;;;;;;;;59.00;44.75;;;;;-147.47;100.00;64613.53;4886476;29;28665;-83
2023/12/02 08:25:21;;;;;;;;;58.25;44.00;;;;;-147.47;100.00;64613.53;4895439;29;29002;-83
2023/12/02 08:27:46;;;;;;;;;47.00;40.25;;;;;-147.47;100.00;64613.53;4868342;29;29064;-83
2023/12/02 08:30:12;;;;;;;;;51.00;40.25;;;;;-147.47;100.00;64613.53;4891382;29;28907;-84
2023/12/02 08:32:38;;;;;;;;;57.25;43.25;;;;;-147.47;100.00;64613.53;4875270;29;29274;-83
2023/12/02 08:35:03;;;;;;;;;55.00;39.50;;;;;-147.47;100.00;64613.53;4899705;29;29047;-81
2023/12/02 08:37:29;;;;;;;;;66.50;42.25;;;;;-147.47;100.00;64613.53;4900345;29;28712;-84
2023/12/02 08:39:54;;;;;;;;;59.75;44.00;;;;;-147.47;100.00;64613.53;4876160;29;28552;-82
2023/12/02 08:42:19;;;;;;;;;60.50;42.50;;;;;-147.47;100.00;64613.53;4892392;29;28778;-84
2023/12/02 08:44:45;;;;;;;;;56.25;42.75;;;;;-147.47;100.00;64613.53;4887508;29;28528;-83
2023/12/02 08:47:10;;;;;;;;;60.75;40.50;;;;;-147.47;100.00;64613.53;4875448;29;29701;-83
2023/12/02 08:49:36;;;;;;;;;60.00;43.25;;;;;-147.47;100.00;64613.53;4893851;29;28127;-83
2023/12/02 08:52:01;;;;;;;;;63.75;45.50;;;;;-147.47;100.00;64613.53;4891165;29;27995;-82
2023/12/02 08:54:27;;;;;;;;;63.50;45.50;;;;;-147.47;100.00;64613.53;4892954;29;29017;-83
2023/12/02 08:56:52;;;;;;;;;54.75;40.50;;;;;-147.47;100.00;64613.53;4888278;29;29677;-83
2023/12/02 08:59:21;;;;;;;;;58.25;42.25;;;;;-147.47;100.00;64613.53;4890518;29;28693;-83
2023/12/02 09:01:47;;;;;;;;;66.25;47.25;;;;;-147.47;100.00;64613.53;4900805;29;29313;-82
2023/12/02 09:04:12;;;;;;;;;56.25;41.00;;;;;-147.47;100.00;64613.53;4888871;29;30057;-83
2023/12/02 09:06:38;;;;;;;;;57.75;39.00;;;;;-147.47;100.00;64613.53;4899841;29;28628;-81
2023/12/02 09:09:04;;;;;;;;;64.25;45.50;;;;;-147.47;100.00;64613.53;4900456;29;28695;-83
2023/12/02 09:11:29;;;;;;;;;58.25;43.75;;;;;-147.47;100.00;64613.53;4914551;29;28559;-81
2023/12/02 09:13:55;;;;;;;;;56.75;42.00;;;;;-147.47;100.00;64613.53;4885714;29;29910;-82
2023/12/02 09:16:28;;;;;;;;;65.75;44.50;;;;;-147.47;100.00;64613.53;4901261;29;28914;-81
2023/12/02 09:18:53;;;;;;;;;52.75;42.00;;;;;-147.47;100.00;64613.53;4907099;29;28452;-81
2023/12/02 09:21:44;;;;;;;;;59.25;46.25;;;;;-147.47;100.00;64613.53;4903088;29;29092;-80
2023/12/02 09:24:35;;;;;;;;;63.25;44.75;;;;;-147.47;100.00;64613.53;4894068;29;28583;-78
2023/12/02 09:27:05;;;;;;;;;52.00;40.75;;;;;-147.47;100.00;64613.53;4903097;29;28572;-80
2023/12/02 09:29:40;;;;;;;;;52.75;39.75;;;;;-147.47;100.00;64613.53;4895701;29;28764;-81
2023/12/02 09:32:49;;;;;;;;;60.75;43.75;;;;;-147.47;100.00;64613.53;4907153;29;28928;-79
2023/12/02 09:35:14;;;;;;;;;60.50;42.75;;;;;-147.47;100.00;64613.53;4885398;29;28248;-81
2023/12/02 09:37:55;;;;;;;;;55.00;44.00;;;;;-147.47;100.00;64613.53;4916848;29;27970;-79
2023/12/02 09:40:23;;;;;;;;;58.00;43.50;;;;;-147.47;100.00;64613.53;4895457;29;29579;-81
2023/12/02 09:43:10;;;;;;;;;56.00;41.00;;;;;-147.47;100.00;64613.53;4921334;29;28114;-79
2023/12/02 09:45:51;;;;;;;;;51.75;40.00;;;;;-147.47;100.00;64613.53;4886154;29;28344;-80
2023/12/02 09:48:27;;;;;;;;;55.00;43.50;;;;;-147.47;100.00;64613.53;4916752;29;28518;-79
2023/12/02 09:51:11;;;;;;;;;54.25;39.25;;;;;-147.47;100.00;64613.53;4886994;29;28502;-79
2023/12/02 09:53:47;;;;;;;;;60.25;42.50;;;;;-147.47;100.00;64613.53;4896331;29;28548;-80
2023/12/02 09:56:29;;;;;;;;;58.00;41.00;;;;;-147.47;100.00;64613.53;4903371;29;28774;-81
2023/12/02 09:59:10;;;;;;;;;57.50;42.00;;;;;-147.47;100.00;64613.53;4905214;29;28146;-79
2023/12/02 10:01:45;;;;;;;;;54.50;40.50;;;;;-147.47;100.00;64613.53;4892887;29;28612;-79
2023/12/02 10:04:29;;;;;;;;;57.00;43.50;;;;;-147.47;100.00;64613.53;4900568;29;30804;-79
2023/12/02 10:07:03;;;;;;;;;55.50;41.75;;;;;-147.47;100.00;64613.53;4878972;29;29082;-80
2023/12/02 10:09:43;;;;;;;;;52.50;38.00;;;;;-147.47;100.00;64613.53;4891039;29;28857;-82
2023/12/02 10:12:30;;;;;;;;;51.00;39.50;;;;;-147.47;100.00;64613.53;4894869;29;27870;-81
2023/12/02 10:15:05;;;;;;;;;56.25;42.50;;;;;-147.47;100.00;64613.53;4901876;29;29617;-82
2023/12/02 10:17:40;;;;;;;;;55.75;42.00;;;;;-147.47;100.00;64613.53;4901803;29;28936;-85
2023/12/02 10:20:12;;;;;;;;;53.50;42.00;;;;;-147.47;100.00;64613.53;4902558;29;28634;-81
2023/12/02 10:22:47;;;;;;;;;53.75;43.25;;;;;-147.47;100.00;64613.53;4891708;29;28526;-77
2023/12/02 10:25:42;;;;;;;;;54.00;40.00;;;;;-147.47;100.00;64613.53;4880143;29;28768;-81
2023/12/02 10:28:32;;;;;;;;;53.75;43.00;;;;;-147.47;100.00;64613.53;4890378;29;29612;-82
2023/12/02 10:31:04;;;;;;;;;52.00;38.25;;;;;-147.47;100.00;64613.53;4872541;29;28463;-80
2023/12/02 10:33:52;;;;;;;;;54.75;42.50;;;;;-147.47;100.00;64613.53;4885037;29;28664;-76
2023/12/02 10:36:21;;;;;;;;;55.00;39.75;;;;;-147.47;100.00;64613.53;4882636;29;29539;-81
2023/12/02 10:39:07;;;;;;;;;50.25;38.50;;;;;-147.47;100.00;64613.53;4869059;29;29980;-85
2023/12/02 10:41:46;;;;;;;;;52.75;40.75;;;;;-147.47;100.00;64613.53;4870535;29;29342;-80
2023/12/02 10:44:17;;;;;;;;;60.25;45.50;;;;;-147.47;100.00;64613.53;4894454;29;29755;-78
2023/12/02 10:46:44;;;;;;;;;53.75;41.00;;;;;-147.47;100.00;64613.53;4888768;29;28512;-83
2023/12/02 10:49:14;;;;;;;;;49.00;40.00;;;;;-147.47;100.00;64613.53;4879271;29;31079;-86
2023/12/02 10:51:42;;;;;;;;;59.75;42.75;;;;;-147.47;100.00;64613.53;4875729;29;28650;-79
2023/12/02 10:54:09;;;;;;;;;56.75;43.50;;;;;-147.47;100.00;64613.53;4890477;29;28584;-80
2023/12/02 10:56:38;;;;;;;;;48.25;38.25;;;;;-147.47;100.00;64613.53;4892657;29;29048;-77